Ashfield, Pennsylvania
Current Conditions -  °F | °C
As of 3:51 AM on Saturday 20 Dec 2014 (Local Time) from KABE Reporting Station
Overcast Overcast  
Wind Chill: -5°   Ceiling: 2600
Heat Index: -1°   Visibility: 10mi
Dew Point: -7°   Wind: 8mph
Humidity: 64%   Direction: 360°N
Pressure: 30.22"   Gusts: NA
Location:  40.78°N, 75.71°W
Report Text: KABE 200851Z 36007KT 10SM OVC026 M01/M07 A3022 RMK AO2 SLP237 T10061067 51011
Loading
Personal Weather Stations






























Interactive Weather Map New forecast layout! Learn more

10-Day Weather Forecast

Advertisements
Track Severe Weather on mobile